Louisville International Standiford Field
KSDF : now visible

Airfield :











YOU CAN JOIN US ON...

 
LOGIN :

Register | Disclaimer

   EN    FR    IT 

 









Legend :    VFR   Marginal VFR   IFR   Intensive IFR   Very Intensive IFR
Visi :
Ceiling :
>= 8 km
>= 3000ft
5 to 8 km
1000 to 3000 ft
1500m to 5 km
500 to 1000 ft
800 to 1500m
200 to 500 ft
< 800m
< 200 ft
Symbols :   Thunderstorms  Fog  Heavy snow  Heavy precipitations  Wind > 20 kt






- Airport Elevation : 501 ft
- IATA code : SDF


KSDF - Louisville International Standiford Field

CURRENT METAR :
  • 191856Z 29012KT 10SM BKN031 M04/M12 A3032 RMK AO2 SLP274 T10391117

EXPIRED METARs :
  • 191756Z 30013G17KT 10SM BKN033 M03/M12 A3032 RMK AO2 SLP272 60000 T10331122 11033 21061 50007
  • 191656Z 27014KT 10SM SCT032 M04/M13 A3033 RMK AO2 SLP276 T10441128

TAF KSDF
Valid from the 19 at 18:00 until the 21 at 00:00 UTC


191720Z 1918/2024 30012G20KT P6SM SCT035
FM192300 31012KT P6SM FEW035
FM200500 32008KT P6SM BKN035
FM201200 35006KT P6SM SCT030



MET'MAP, your aeronautical weather chart ! - Copyright ORBIFLY December 2007 - Disclaimer

ORBIFLY MET'MAP TEAM :

Programming & Development : Alexandra Zaïnal
Concept & original design : Baudouin d'Aumeries
Assistance for programming : Marc-Olivier Méhu
Technical & hardware support : Manuel Goepfert

Contact : metmap@orbifly.com




SOURCES & CREDITS :

   NOAA       Earth
Advisory